createdAt,value
2022-10-12T00:00:10.910Z,72.89
2022-10-12T00:01:10.904Z,73.02
2022-10-12T00:02:10.999Z,73.02
2022-10-12T00:03:13.145Z,73.02
2022-10-12T00:04:10.873Z,72.92
2022-10-12T00:05:10.983Z,73.02
2022-10-12T00:06:10.849Z,73.02
2022-10-12T00:07:10.827Z,73.06
2022-10-12T00:08:10.828Z,72.96
2022-10-12T00:09:10.814Z,72.75
2022-10-12T00:10:10.794Z,72.96
2022-10-12T00:11:10.817Z,72.65
2022-10-12T00:12:10.769Z,72.75
2022-10-12T00:13:10.765Z,72.86
2022-10-12T00:14:10.769Z,72.75
2022-10-12T00:15:10.734Z,72.86
2022-10-12T00:16:10.731Z,72.96
2022-10-12T00:17:10.751Z,72.86
2022-10-12T00:18:10.720Z,72.96
2022-10-12T00:19:10.689Z,72.86
2022-10-12T00:20:10.682Z,72.89
2022-10-12T00:21:10.701Z,72.86
2022-10-12T00:22:10.659Z,72.89
2022-10-12T00:23:10.679Z,72.78
2022-10-12T00:24:10.630Z,72.99
2022-10-12T00:25:10.626Z,72.78
2022-10-12T00:26:10.614Z,72.99
2022-10-12T00:27:10.629Z,72.89
2022-10-12T00:28:10.621Z,72.89
2022-10-12T00:29:10.619Z,72.78
2022-10-12T00:30:10.606Z,72.78
2022-10-12T00:31:10.551Z,72.89
2022-10-12T00:32:10.547Z,73.30
2022-10-12T00:33:10.531Z,73.33
2022-10-12T00:34:10.520Z,73.33
2022-10-12T00:35:10.546Z,73.02
2022-10-12T00:36:10.501Z,73.02
2022-10-12T00:37:10.544Z,72.99
2022-10-12T00:38:10.474Z,73.02
2022-10-12T00:39:10.483Z,73.19
2022-10-12T00:40:10.456Z,72.92
2022-10-12T00:41:10.471Z,73.02
2022-10-12T00:42:10.429Z,73.13
2022-10-12T00:43:10.419Z,73.13
2022-10-12T00:44:10.442Z,73.13
2022-10-12T00:45:10.393Z,73.13
2022-10-12T00:46:10.413Z,73.33
2022-10-12T00:47:10.500Z,73.02
2022-10-12T00:48:10.364Z,73.02
2022-10-12T00:49:10.349Z,72.92
2022-10-12T00:50:10.354Z,72.92
2022-10-12T00:51:10.336Z,73.23
2022-10-12T00:52:10.338Z,73.26
2022-10-12T00:53:10.342Z,72.86
2022-10-12T00:54:10.292Z,72.86
2022-10-12T00:55:10.280Z,73.36
2022-10-12T00:56:10.283Z,72.96
2022-10-12T00:57:10.259Z,72.96
2022-10-12T00:58:10.251Z,73.06
2022-10-12T00:59:10.286Z,73.47
2022-10-12T01:00:10.335Z,73.06
2022-10-12T01:01:10.251Z,73.19
2022-10-12T01:02:10.225Z,73.10
2022-10-12T01:03:10.188Z,73.19
2022-10-12T01:04:10.176Z,73.10
2022-10-12T01:05:10.200Z,73.30
2022-10-12T01:06:10.153Z,73.40
2022-10-12T01:07:10.149Z,73.40
2022-10-12T01:08:10.133Z,73.10
2022-10-12T01:09:10.120Z,73.30
2022-10-12T01:10:10.115Z,73.30
2022-10-12T01:11:10.129Z,73.43
2022-10-12T01:12:10.096Z,73.33
2022-10-12T01:13:10.072Z,73.23
2022-10-12T01:14:10.066Z,73.64
2022-10-12T01:15:10.054Z,73.54
2022-10-12T01:16:10.041Z,73.33
2022-10-12T01:17:10.062Z,73.57
2022-10-12T01:18:10.041Z,73.36
2022-10-12T01:19:10.015Z,73.36
2022-10-12T01:20:10.005Z,73.57
2022-10-12T01:21:10.015Z,73.47
2022-10-12T01:22:09.976Z,73.57
2022-10-12T01:23:10.004Z,73.57
2022-10-12T01:24:09.952Z,73.47
2022-10-12T01:25:09.940Z,73.30
2022-10-12T01:26:09.937Z,73.47
2022-10-12T01:27:09.916Z,73.47
2022-10-12T01:28:09.999Z,73.27
2022-10-12T01:29:09.925Z,73.30
2022-10-12T01:30:09.879Z,73.50
2022-10-12T01:31:09.903Z,73.30
2022-10-12T01:32:09.866Z,73.40
2022-10-12T01:33:09.856Z,73.44
2022-10-12T01:34:09.868Z,73.50
2022-10-12T01:35:09.838Z,73.54
2022-10-12T01:36:09.813Z,73.50
2022-10-12T01:37:09.796Z,73.54
2022-10-12T01:38:09.816Z,73.33
2022-10-12T01:39:09.781Z,73.44
2022-10-12T01:40:09.767Z,73.44
2022-10-12T01:41:09.771Z,73.54
2022-10-12T01:42:09.743Z,73.64
2022-10-12T01:43:09.739Z,73.54
2022-10-12T01:44:09.739Z,73.23
2022-10-12T01:45:09.709Z,73.33
2022-10-12T01:46:09.705Z,73.47
2022-10-12T01:47:09.724Z,73.36
2022-10-12T01:48:09.679Z,73.54
2022-10-12T01:49:09.693Z,73.47
2022-10-12T01:50:09.706Z,73.68
2022-10-12T01:51:09.677Z,73.47
2022-10-12T01:52:09.635Z,73.68
2022-10-12T01:53:09.651Z,73.57
2022-10-12T01:54:09.613Z,73.47
2022-10-12T01:55:09.595Z,73.57
2022-10-12T01:56:09.588Z,73.57
2022-10-12T01:57:09.600Z,73.68
2022-10-12T01:58:09.564Z,73.47
2022-10-12T01:59:09.588Z,73.50
2022-10-12T02:00:09.549Z,73.61
2022-10-12T02:01:09.674Z,73.71
2022-10-12T02:02:09.518Z,73.57
2022-10-12T02:03:09.501Z,73.50
2022-10-12T02:04:09.516Z,73.47
2022-10-12T02:05:09.516Z,73.61
2022-10-12T02:06:09.526Z,73.40
2022-10-12T02:07:09.462Z,73.50
2022-10-12T02:08:09.444Z,73.50
2022-10-12T02:09:09.440Z,73.40
2022-10-12T02:10:09.436Z,73.40
2022-10-12T02:11:09.441Z,73.61
2022-10-12T02:12:09.405Z,73.50
2022-10-12T02:13:09.387Z,73.50
2022-10-12T02:14:09.405Z,73.50
2022-10-12T02:15:09.398Z,73.74
2022-10-12T02:16:09.357Z,73.33
2022-10-12T02:17:09.357Z,73.30
2022-10-12T02:18:09.338Z,73.54
2022-10-12T02:19:09.326Z,73.50
2022-10-12T02:20:09.320Z,73.44
2022-10-12T02:21:09.303Z,73.44
2022-10-12T02:22:09.304Z,73.54
2022-10-12T02:23:09.314Z,73.64
2022-10-12T02:24:09.263Z,73.74
2022-10-12T02:25:09.282Z,73.64
2022-10-12T02:26:09.265Z,73.74
2022-10-12T02:27:09.247Z,73.44
2022-10-12T02:28:09.322Z,73.54
2022-10-12T02:29:09.219Z,73.54
2022-10-12T02:30:09.212Z,73.54
2022-10-12T02:31:09.183Z,73.44
2022-10-12T02:32:09.179Z,73.54
2022-10-12T02:33:09.165Z,73.85
2022-10-12T02:34:09.172Z,73.44
2022-10-12T02:35:09.174Z,73.33
2022-10-12T02:36:09.128Z,73.23
2022-10-12T02:37:09.124Z,73.44
2022-10-12T02:38:09.127Z,73.44
2022-10-12T02:39:09.104Z,73.13
2022-10-12T02:40:09.089Z,73.44
2022-10-12T02:41:09.089Z,73.23
2022-10-12T02:42:09.062Z,73.23
2022-10-12T02:43:10.924Z,73.33
2022-10-12T02:44:09.039Z,73.33
2022-10-12T02:45:09.030Z,73.64
2022-10-12T02:46:09.018Z,73.68
2022-10-12T02:47:09.038Z,73.33
2022-10-12T02:48:08.995Z,73.74
2022-10-12T02:49:08.977Z,73.54
2022-10-12T02:50:09.033Z,73.44
2022-10-12T02:51:08.963Z,73.64
2022-10-12T02:52:08.949Z,73.68
2022-10-12T02:53:08.961Z,73.33
2022-10-12T02:54:08.948Z,73.27
2022-10-12T02:55:08.911Z,73.64
2022-10-12T02:56:08.902Z,73.33
2022-10-12T02:57:08.886Z,73.57
2022-10-12T02:58:08.886Z,73.44
2022-10-12T02:59:08.904Z,73.47
2022-10-12T03:00:08.858Z,73.36
2022-10-12T03:01:08.874Z,73.47
2022-10-12T03:02:08.832Z,73.36
2022-10-12T03:03:08.825Z,73.36
2022-10-12T03:04:09.007Z,73.74
2022-10-12T03:05:08.834Z,73.44
2022-10-12T03:06:08.817Z,73.33
2022-10-12T03:07:08.781Z,73.33
2022-10-12T03:08:08.760Z,73.74
2022-10-12T03:09:08.758Z,73.64
2022-10-12T03:10:08.774Z,73.64
2022-10-12T03:11:08.876Z,73.33
2022-10-12T03:12:08.726Z,73.33
2022-10-12T03:13:08.719Z,73.33
2022-10-12T03:14:08.702Z,73.33
2022-10-12T03:15:08.689Z,73.33
2022-10-12T03:16:08.691Z,73.64
2022-10-12T03:17:08.694Z,73.54
2022-10-12T03:18:08.672Z,73.44
2022-10-12T03:19:08.668Z,73.54
2022-10-12T03:20:08.635Z,73.44
2022-10-12T03:21:08.639Z,73.36
2022-10-12T03:22:08.609Z,73.44
2022-10-12T03:23:08.609Z,73.36
2022-10-12T03:24:08.627Z,73.36
2022-10-12T03:25:08.578Z,73.57
2022-10-12T03:26:08.600Z,73.44
2022-10-12T03:27:08.556Z,73.27
2022-10-12T03:28:08.536Z,73.88
2022-10-12T03:29:08.547Z,73.27
2022-10-12T03:30:08.521Z,73.27
2022-10-12T03:31:08.533Z,73.27
2022-10-12T03:32:08.500Z,73.57
2022-10-12T03:33:08.481Z,73.50
2022-10-12T03:34:08.475Z,73.27
2022-10-12T03:35:08.499Z,73.36
2022-10-12T03:36:08.467Z,73.36
2022-10-12T03:37:08.432Z,73.68
2022-10-12T03:38:08.427Z,73.68
2022-10-12T03:39:08.440Z,73.71
2022-10-12T03:40:08.403Z,73.47
2022-10-12T03:41:08.410Z,73.81
2022-10-12T03:42:08.398Z,73.71
2022-10-12T03:43:08.384Z,73.71
2022-10-12T03:44:08.354Z,73.30
2022-10-12T03:45:08.347Z,73.91
2022-10-12T03:46:08.356Z,73.61
2022-10-12T03:47:08.332Z,73.71
2022-10-12T03:48:08.311Z,73.61
2022-10-12T03:49:08.321Z,73.95
2022-10-12T03:50:08.286Z,73.64
2022-10-12T03:51:08.308Z,73.95
2022-10-12T03:52:08.270Z,73.50
2022-10-12T03:53:08.309Z,73.54
2022-10-12T03:54:08.248Z,73.74
2022-10-12T03:55:08.229Z,73.64
2022-10-12T03:56:08.229Z,73.64
2022-10-12T03:57:08.210Z,73.64
2022-10-12T03:58:08.224Z,73.64
2022-10-12T03:59:08.218Z,73.85
2022-10-12T04:00:08.183Z,73.64
2022-10-12T04:01:08.193Z,73.64
2022-10-12T04:02:09.005Z,73.85
2022-10-12T04:03:08.164Z,73.74
2022-10-12T04:04:08.135Z,73.64
2022-10-12T04:05:08.176Z,73.54
2022-10-12T04:06:08.107Z,73.85
2022-10-12T04:07:08.101Z,73.54
2022-10-12T04:08:08.134Z,73.74
2022-10-12T04:09:08.075Z,73.54
2022-10-12T04:10:08.070Z,73.64
2022-10-12T04:11:08.102Z,73.57
2022-10-12T04:12:08.069Z,73.68
2022-10-12T04:13:08.028Z,73.68
2022-10-12T04:14:08.039Z,73.78
2022-10-12T04:15:08.120Z,73.47
2022-10-12T04:16:07.999Z,73.68
2022-10-12T04:17:08.012Z,73.78
2022-10-12T04:18:07.969Z,73.78
2022-10-12T04:19:07.956Z,73.57
2022-10-12T04:20:07.945Z,73.78
2022-10-12T04:21:07.939Z,73.88
2022-10-12T04:22:07.924Z,73.78
2022-10-12T04:23:07.954Z,73.88
2022-10-12T04:24:07.924Z,74.02
2022-10-12T04:25:07.885Z,73.91
2022-10-12T04:26:07.878Z,73.71
2022-10-12T04:27:07.862Z,73.81
2022-10-12T04:28:07.854Z,73.68
2022-10-12T04:29:07.880Z,74.02
2022-10-12T04:30:07.861Z,73.91
2022-10-12T04:31:07.815Z,73.50
2022-10-12T04:32:12.345Z,73.61
2022-10-12T04:33:07.793Z,73.40
2022-10-12T04:34:07.805Z,73.81
2022-10-12T04:35:07.793Z,73.81
2022-10-12T04:36:07.765Z,73.61
2022-10-12T04:37:07.772Z,73.81
2022-10-12T04:38:07.795Z,73.71
2022-10-12T04:39:07.737Z,73.81
2022-10-12T04:40:07.720Z,73.85
2022-10-12T04:41:07.720Z,73.81
2022-10-12T04:42:07.699Z,73.71
2022-10-12T04:43:07.679Z,73.74
2022-10-12T04:44:07.675Z,73.71
2022-10-12T04:45:07.738Z,73.85
2022-10-12T04:46:07.669Z,73.85
2022-10-12T04:47:07.667Z,73.91
2022-10-12T04:48:07.661Z,73.95
2022-10-12T04:49:07.622Z,73.85
2022-10-12T04:50:07.693Z,73.95
2022-10-12T04:51:07.587Z,73.95
2022-10-12T04:52:07.621Z,73.85
2022-10-12T04:53:07.640Z,73.85
2022-10-12T04:54:07.560Z,73.85
2022-10-12T04:55:07.546Z,74.05
2022-10-12T04:56:07.539Z,74.15
2022-10-12T04:57:07.520Z,73.74
2022-10-12T04:58:07.545Z,73.85
2022-10-12T04:59:07.557Z,73.95
2022-10-12T05:00:07.486Z,73.95
2022-10-12T05:01:07.542Z,74.05
2022-10-12T05:02:07.512Z,74.26
2022-10-12T05:03:07.686Z,74.26
2022-10-12T05:04:07.448Z,74.36
2022-10-12T05:05:07.465Z,74.05
2022-10-12T05:06:07.424Z,74.05
2022-10-12T05:07:07.527Z,74.26
2022-10-12T05:08:07.415Z,74.15
2022-10-12T05:09:07.401Z,74.05
2022-10-12T05:10:07.375Z,74.05
2022-10-12T05:11:07.399Z,74.05
2022-10-12T05:12:07.358Z,74.36
2022-10-12T05:13:07.343Z,74.46
2022-10-12T05:14:07.353Z,74.26
2022-10-12T05:15:07.328Z,74.26
2022-10-12T05:16:07.332Z,74.26
2022-10-12T05:17:07.308Z,74.26
2022-10-12T05:18:07.322Z,74.26
2022-10-12T05:19:07.271Z,74.05
2022-10-12T05:20:07.261Z,73.95
2022-10-12T05:21:07.277Z,73.74
2022-10-12T05:22:07.246Z,73.95
2022-10-12T05:23:07.255Z,73.74
2022-10-12T05:24:07.299Z,73.81
2022-10-12T05:25:07.211Z,73.71
2022-10-12T05:26:07.191Z,73.61
2022-10-12T05:27:07.201Z,73.61
2022-10-12T05:28:07.175Z,73.91
2022-10-12T05:29:07.177Z,73.71
2022-10-12T05:30:07.164Z,73.81
2022-10-12T05:31:07.702Z,73.78
2022-10-12T05:32:07.170Z,73.91
2022-10-12T05:33:07.117Z,73.78
2022-10-12T05:34:07.300Z,73.81
2022-10-12T05:35:07.127Z,73.68
2022-10-12T05:36:07.078Z,73.78
2022-10-12T05:37:07.078Z,73.88
2022-10-12T05:38:07.055Z,73.68
2022-10-12T05:39:07.049Z,73.68
2022-10-12T05:40:07.035Z,73.54
2022-10-12T05:41:07.078Z,73.44
2022-10-12T05:42:07.073Z,73.44
2022-10-12T05:43:07.003Z,73.54
2022-10-12T05:44:07.731Z,73.44
2022-10-12T05:45:07.026Z,73.71
2022-10-12T05:46:09.125Z,73.44
2022-10-12T05:47:08.143Z,73.61
2022-10-12T05:48:06.948Z,73.61
2022-10-12T05:49:26.221Z,73.61
2022-10-12T05:51:43.582Z,73.27
2022-10-12T05:53:43.170Z,73.27
2022-10-12T05:54:39.062Z,73.27
2022-10-12T05:55:39.066Z,73.36
2022-10-12T05:56:39.493Z,73.27
2022-10-12T05:57:39.016Z,73.57
2022-10-12T05:58:45.066Z,73.33
2022-10-12T05:59:38.253Z,73.23
2022-10-12T06:00:38.213Z,73.44
2022-10-12T06:01:38.242Z,73.64
2022-10-12T06:02:38.525Z,73.54
2022-10-12T06:03:38.214Z,73.13
2022-10-12T06:04:38.197Z,73.33
2022-10-12T06:05:38.215Z,73.23
2022-10-12T06:06:38.167Z,73.40
2022-10-12T06:07:38.346Z,73.40
2022-10-12T06:08:39.499Z,73.40
2022-10-12T06:09:38.110Z,73.47
2022-10-12T06:10:38.149Z,73.27
2022-10-12T06:11:38.248Z,72.75
2022-10-12T06:12:38.333Z,72.55
2022-10-12T06:13:38.067Z,72.86
2022-10-12T06:14:38.064Z,72.86
2022-10-12T06:15:38.042Z,72.65
2022-10-12T06:16:38.060Z,72.72
2022-10-12T06:17:38.096Z,73.13
2022-10-12T06:18:38.007Z,72.72
2022-10-12T06:19:38.003Z,72.28
2022-10-12T06:20:38.028Z,72.48
2022-10-12T06:21:37.978Z,72.89
2022-10-12T06:22:38.348Z,72.38
2022-10-12T06:23:38.029Z,72.86
2022-10-12T06:24:38.034Z,72.58
2022-10-12T06:25:38.019Z,73.06
2022-10-12T06:26:37.998Z,72.75
2022-10-12T06:27:37.910Z,73.27
2022-10-12T06:28:37.983Z,72.65
2022-10-12T06:29:38.606Z,72.69
2022-10-12T06:30:37.947Z,73.16
2022-10-12T06:31:37.934Z,73.16
2022-10-12T06:32:38.155Z,72.55
2022-10-12T06:33:38.588Z,73.16
2022-10-12T06:34:37.878Z,72.65
2022-10-12T06:35:37.836Z,72.72
2022-10-12T06:36:37.834Z,72.41
2022-10-12T06:37:49.686Z,72.72
2022-10-12T06:38:38.831Z,72.41
2022-10-12T06:39:37.825Z,72.52
2022-10-12T06:40:37.872Z,72.38
2022-10-12T06:41:37.821Z,72.28
2022-10-12T06:42:38.071Z,72.28
2022-10-12T06:43:37.800Z,72.28
2022-10-12T06:44:38.692Z,72.38
2022-10-12T06:45:38.531Z,72.28
2022-10-12T06:46:37.778Z,72.38
2022-10-12T06:47:38.014Z,72.34
2022-10-12T06:48:47.705Z,72.34
2022-10-12T06:49:37.875Z,72.04
2022-10-12T06:50:37.862Z,72.24
2022-10-12T06:58:52.283Z,72.04
2022-10-12T06:59:44.843Z,72.34
2022-10-12T07:00:44.599Z,72.31
2022-10-12T07:01:44.631Z,72.41
2022-10-12T07:02:44.581Z,72.52
2022-10-12T07:03:44.609Z,72.28
2022-10-12T07:04:44.639Z,71.87
2022-10-12T07:05:44.624Z,72.25
2022-10-12T07:06:44.529Z,71.80
2022-10-12T07:07:44.518Z,72.11
2022-10-12T07:14:30.385Z,72.01
2022-10-12T07:15:30.139Z,72.72
2022-10-12T07:16:30.132Z,71.91
2022-10-12T07:17:30.188Z,72.92
2022-10-12T07:20:18.491Z,71.77
2022-10-12T07:21:18.454Z,72.17
2022-10-12T07:22:18.421Z,72.89
2022-10-12T07:23:18.419Z,72.69
2022-10-12T07:24:18.399Z,72.55
2022-10-12T07:25:18.487Z,72.69
2022-10-12T07:26:18.456Z,72.55
2022-10-12T07:27:18.367Z,72.65
2022-10-12T07:31:58.571Z,71.60
2022-10-12T07:32:58.708Z,71.70
2022-10-12T07:34:06.403Z,72.96
2022-10-12T07:34:58.495Z,72.62
2022-10-12T07:36:13.453Z,71.50
2022-10-12T07:37:00.812Z,72.52
2022-10-12T07:37:58.506Z,71.80
2022-10-12T07:38:58.452Z,71.47
2022-10-12T07:39:58.498Z,72.48
2022-10-12T07:40:58.468Z,72.48
2022-10-12T07:41:59.164Z,71.73
2022-10-12T07:43:15.201Z,72.65
2022-10-12T07:43:59.387Z,72.04
2022-10-12T07:44:58.461Z,71.84
2022-10-12T07:48:09.782Z,71.20
2022-10-12T07:50:24.435Z,71.09
2022-10-12T07:51:24.418Z,71.50
2022-10-12T07:52:24.445Z,71.70
2022-10-12T07:53:24.511Z,71.57
2022-10-12T07:54:29.238Z,71.57
2022-10-12T07:55:25.395Z,71.44
2022-10-12T07:56:24.511Z,71.53
2022-10-12T07:57:24.448Z,71.44
2022-10-12T07:58:24.431Z,71.09
2022-10-12T07:59:24.396Z,70.79
2022-10-12T08:00:25.190Z,71.26
2022-10-12T08:01:24.374Z,71.06
2022-10-12T08:02:24.341Z,70.86
2022-10-12T08:03:32.412Z,70.96
2022-10-12T08:05:57.542Z,70.52
2022-10-12T08:06:57.363Z,70.65
2022-10-12T08:07:57.345Z,70.96
2022-10-12T08:08:57.324Z,70.42
2022-10-12T08:09:57.411Z,71.26
2022-10-12T08:10:57.444Z,70.83
2022-10-12T08:11:57.849Z,70.69
2022-10-12T08:12:57.274Z,70.79
2022-10-12T08:13:57.486Z,70.56
2022-10-12T08:14:57.250Z,70.56
2022-10-12T08:15:57.245Z,70.46
2022-10-12T08:16:57.236Z,70.56
2022-10-12T08:17:57.299Z,70.56
2022-10-12T08:18:57.370Z,70.56
2022-10-12T08:19:57.200Z,70.56
2022-10-12T08:20:58.072Z,70.53
2022-10-12T08:21:57.225Z,70.53
2022-10-12T08:22:58.131Z,70.53
2022-10-12T08:23:57.206Z,70.62
2022-10-12T08:24:58.152Z,70.59
2022-10-12T08:25:58.067Z,70.49
2022-10-12T08:27:01.156Z,70.39
2022-10-12T08:27:57.113Z,70.59
2022-10-12T08:28:57.726Z,70.59
2022-10-12T08:29:57.102Z,70.39
2022-10-12T08:30:57.075Z,70.59
2022-10-12T08:31:58.060Z,70.56
2022-10-12T08:32:57.046Z,70.49
2022-10-12T08:33:57.060Z,70.56
2022-10-12T08:34:57.055Z,70.26
2022-10-12T08:35:57.365Z,70.36
2022-10-12T08:36:57.042Z,70.66
2022-10-12T08:37:57.009Z,70.26
2022-10-12T08:38:57.148Z,70.66
2022-10-12T08:40:02.196Z,70.66
2022-10-12T08:42:45.498Z,70.46
2022-10-12T08:43:45.418Z,70.66
2022-10-12T08:44:45.335Z,71.06
2022-10-12T08:45:45.263Z,70.76
2022-10-12T08:46:45.275Z,70.62
2022-10-12T08:47:45.357Z,70.73
2022-10-12T08:48:45.460Z,70.73
2022-10-12T08:49:49.615Z,70.73
2022-10-12T08:50:45.366Z,70.53
2022-10-12T08:51:45.199Z,70.49
2022-10-12T08:52:45.200Z,70.49
2022-10-12T08:56:09.107Z,70.49
2022-10-12T08:58:46.069Z,70.49
2022-10-12T08:59:46.171Z,70.49
2022-10-12T09:00:45.948Z,70.59
2022-10-12T09:01:46.080Z,70.69
2022-10-12T09:02:46.005Z,70.59
2022-10-12T09:03:45.920Z,70.69
2022-10-12T09:04:45.874Z,70.66
2022-10-12T09:05:45.869Z,70.66
2022-10-12T09:06:46.113Z,70.66
2022-10-12T09:07:46.084Z,70.73
2022-10-12T09:08:46.005Z,70.42
2022-10-12T09:09:45.810Z,70.42
2022-10-12T09:10:45.804Z,70.50
2022-10-12T09:11:45.786Z,70.53
2022-10-12T09:12:45.806Z,70.59
2022-10-12T09:13:45.956Z,70.50
2022-10-12T09:14:45.755Z,70.19
2022-10-12T09:15:45.940Z,70.39
2022-10-12T09:16:45.761Z,70.39
2022-10-12T09:17:45.926Z,70.39
2022-10-12T09:18:45.773Z,70.26
2022-10-12T09:19:46.910Z,70.19
2022-10-12T09:20:45.709Z,70.39
2022-10-12T09:21:45.691Z,70.26
2022-10-12T09:22:45.731Z,70.36
2022-10-12T09:23:45.718Z,70.16
2022-10-12T09:24:45.741Z,70.36
2022-10-12T09:25:45.752Z,70.46
2022-10-12T09:26:45.629Z,70.46
2022-10-12T09:27:45.605Z,70.26
2022-10-12T09:28:45.724Z,70.06
2022-10-12T09:29:45.820Z,70.26
2022-10-12T09:30:45.630Z,70.32
2022-10-12T09:31:45.583Z,70.36
2022-10-12T09:32:45.777Z,70.26
2022-10-12T09:33:45.562Z,70.32
2022-10-12T09:34:45.576Z,70.32
2022-10-12T09:35:45.520Z,70.32
2022-10-12T09:36:45.708Z,70.32
2022-10-12T09:37:45.578Z,70.53
2022-10-12T09:38:45.967Z,70.32
2022-10-12T09:39:45.648Z,70.12
2022-10-12T09:44:43.298Z,70.43
2022-10-12T09:45:42.986Z,70.23
2022-10-12T09:46:42.992Z,70.23
2022-10-12T09:47:42.975Z,70.32
2022-10-12T09:48:47.705Z,70.23
2022-10-12T09:49:42.954Z,70.63
2022-10-12T09:50:42.961Z,70.19
2022-10-12T09:51:42.960Z,70.39
2022-10-12T09:52:42.910Z,70.39
2022-10-12T09:53:42.907Z,70.19
2022-10-12T09:54:42.928Z,70.36
2022-10-12T09:55:42.877Z,70.19
2022-10-12T09:56:42.884Z,70.16
2022-10-12T09:57:42.856Z,70.19
2022-10-12T09:58:42.868Z,70.06
2022-10-12T09:59:42.857Z,70.36
2022-10-12T10:00:42.835Z,70.09
2022-10-12T10:01:42.837Z,70.06
2022-10-12T10:02:42.815Z,70.06
2022-10-12T10:03:42.782Z,70.06
2022-10-12T10:04:42.779Z,70.23
2022-10-12T10:05:42.770Z,70.32
2022-10-12T10:06:42.753Z,70.12
2022-10-12T10:07:42.745Z,69.99
2022-10-12T10:08:42.879Z,70.09
2022-10-12T10:09:42.783Z,69.79
2022-10-12T10:10:42.732Z,70.23
2022-10-12T10:11:42.700Z,70.03
2022-10-12T10:12:42.685Z,70.03
2022-10-12T10:13:42.678Z,70.12
2022-10-12T10:14:42.783Z,69.69
2022-10-12T10:15:42.651Z,70.23
2022-10-12T10:16:42.645Z,69.69
2022-10-12T10:17:42.649Z,69.69
2022-10-12T10:18:42.624Z,69.56
2022-10-12T10:19:42.616Z,69.59
2022-10-12T10:20:42.671Z,69.59
2022-10-12T10:21:42.845Z,69.56
2022-10-12T10:22:42.579Z,69.46
2022-10-12T10:25:41.657Z,69.76
2022-10-12T10:26:41.643Z,69.85
2022-10-12T10:28:57.173Z,69.89
2022-10-12T10:32:03.579Z,69.69
2022-10-12T10:35:13.488Z,69.52
2022-10-12T10:36:13.347Z,69.72
2022-10-12T10:37:13.377Z,70.03
2022-10-12T10:38:13.978Z,69.92
2022-10-12T10:39:13.407Z,70.32
2022-10-12T10:40:13.284Z,69.79
2022-10-12T10:41:13.344Z,70.03
2022-10-12T10:42:13.454Z,69.69
2022-10-12T10:43:13.238Z,69.69
2022-10-12T10:44:13.219Z,69.62
2022-10-12T10:45:13.297Z,69.39
2022-10-12T10:46:13.347Z,69.49
2022-10-12T10:47:14.483Z,69.49
2022-10-12T10:48:13.375Z,69.56
2022-10-12T10:49:13.248Z,69.46
2022-10-12T10:50:13.274Z,69.56
2022-10-12T10:51:13.310Z,69.76
2022-10-12T10:52:13.189Z,69.85
2022-10-12T10:53:13.125Z,69.85
2022-10-12T10:56:01.346Z,69.42
2022-10-12T10:57:01.120Z,69.76
2022-10-12T10:58:01.269Z,69.96
2022-10-12T10:59:01.403Z,69.85
2022-10-12T11:00:26.107Z,69.76
2022-10-12T11:01:02.155Z,69.66
2022-10-12T11:02:05.362Z,69.85
2022-10-12T11:03:01.040Z,69.73
2022-10-12T11:07:24.679Z,68.95
2022-10-12T11:08:24.424Z,69.85
2022-10-12T11:09:24.422Z,69.66
2022-10-12T11:10:24.408Z,69.82
2022-10-12T11:11:24.404Z,69.82
2022-10-12T11:12:28.746Z,69.82
2022-10-12T11:13:25.695Z,69.62
2022-10-12T11:14:24.365Z,68.92
2022-10-12T11:15:24.341Z,68.69
2022-10-12T11:16:24.352Z,69.09
2022-10-12T11:21:07.062Z,69.29
2022-10-12T11:22:07.043Z,69.39
2022-10-12T11:23:07.039Z,68.59
2022-10-12T11:24:07.749Z,68.69
2022-10-12T11:26:57.004Z,69.29
2022-10-12T11:27:56.954Z,68.99
2022-10-12T11:28:57.141Z,68.89
2022-10-12T11:30:08.326Z,69.19
2022-10-12T11:30:57.938Z,69.09
2022-10-12T11:31:57.611Z,69.09
2022-10-12T11:33:18.694Z,68.96
2022-10-12T11:33:56.882Z,68.55
2022-10-12T11:38:29.434Z,68.79
2022-10-12T11:39:29.409Z,69.19
2022-10-12T11:41:00.309Z,69.82
2022-10-12T11:41:35.328Z,69.73
2022-10-12T11:42:30.356Z,69.82
2022-10-12T11:43:29.429Z,69.82
2022-10-12T11:44:30.702Z,69.79
2022-10-12T11:45:29.362Z,69.82
2022-10-12T11:46:29.306Z,69.79
2022-10-12T11:47:29.301Z,69.62
2022-10-12T11:48:29.295Z,69.39
2022-10-12T11:49:29.283Z,69.32
2022-10-12T11:50:29.294Z,69.09
2022-10-12T11:51:29.268Z,68.99
2022-10-12T11:52:29.429Z,69.29
2022-10-12T11:53:29.237Z,69.32
2022-10-12T11:54:29.246Z,68.99
2022-10-12T11:55:29.575Z,68.69
2022-10-12T11:56:29.215Z,69.09
2022-10-12T11:57:29.267Z,68.59
2022-10-12T11:58:48.568Z,68.39
2022-10-12T11:59:30.164Z,69.26
2022-10-12T12:00:29.177Z,68.15
2022-10-12T12:01:29.159Z,68.76
2022-10-12T12:02:29.191Z,68.76
2022-10-12T12:03:29.152Z,68.35
2022-10-12T12:04:41.789Z,69.06
2022-10-12T12:05:30.095Z,68.35
2022-10-12T12:06:29.099Z,68.26
2022-10-12T12:07:29.076Z,68.15
2022-10-12T12:08:29.145Z,68.35
2022-10-12T12:09:30.024Z,68.26
2022-10-12T12:10:29.038Z,68.46
2022-10-12T12:11:29.030Z,68.35
2022-10-12T12:12:29.015Z,68.35
2022-10-12T12:13:29.520Z,69.06
2022-10-12T12:14:29.068Z,68.35
2022-10-12T12:15:28.995Z,68.55
2022-10-12T12:16:29.001Z,68.65
2022-10-12T12:17:31.992Z,68.89
2022-10-12T12:18:28.976Z,68.89
2022-10-12T12:19:28.962Z,68.59
2022-10-12T12:20:28.966Z,68.29
2022-10-12T12:21:28.946Z,68.69
2022-10-12T12:22:29.526Z,68.69
2022-10-12T12:23:28.894Z,68.49
2022-10-12T12:24:28.882Z,68.79
2022-10-12T12:25:28.864Z,68.89
2022-10-12T12:26:28.912Z,68.39
2022-10-12T12:27:28.843Z,69.19
2022-10-12T12:28:28.853Z,68.32
2022-10-12T12:29:28.829Z,68.32
2022-10-12T12:30:28.813Z,69.12
2022-10-12T12:31:28.821Z,69.02
2022-10-12T12:32:28.841Z,68.72
2022-10-12T12:33:28.788Z,68.76
2022-10-12T12:34:28.772Z,68.95
2022-10-12T12:35:28.768Z,68.95
2022-10-12T12:36:28.745Z,68.95
2022-10-12T12:37:28.737Z,68.55
2022-10-12T12:38:28.794Z,68.85
2022-10-12T12:39:28.708Z,68.55
2022-10-12T12:40:28.728Z,69.15
2022-10-12T12:41:28.701Z,68.45
2022-10-12T12:42:29.534Z,69.15
2022-10-12T12:43:28.671Z,68.45
2022-10-12T12:44:28.706Z,68.35
2022-10-12T12:45:28.645Z,68.35
2022-10-12T12:46:28.753Z,68.45
2022-10-12T12:47:45.829Z,68.85
2022-10-12T12:48:29.653Z,68.76
2022-10-12T12:49:28.605Z,68.76
2022-10-12T12:50:28.625Z,68.25
2022-10-12T12:51:28.604Z,68.85
2022-10-12T12:52:28.563Z,68.65
2022-10-12T12:53:28.555Z,68.55
2022-10-12T12:54:28.572Z,68.35
2022-10-12T12:55:28.534Z,68.15
2022-10-12T12:56:28.575Z,68.25
2022-10-12T12:57:28.510Z,68.49
2022-10-12T12:58:29.043Z,68.35
2022-10-12T12:59:28.481Z,67.98
2022-10-12T13:00:28.709Z,67.95
2022-10-12T13:01:28.568Z,68.15
2022-10-12T13:02:28.483Z,68.15
2022-10-12T13:03:28.439Z,67.98
2022-10-12T13:04:28.454Z,67.98
2022-10-12T13:05:28.429Z,68.38
2022-10-12T13:06:28.412Z,68.08
2022-10-12T13:07:28.653Z,68.62
2022-10-12T13:08:28.394Z,68.41
2022-10-12T13:09:28.378Z,68.59
2022-10-12T13:10:28.357Z,68.59
2022-10-12T13:11:28.351Z,68.49
2022-10-12T13:12:28.363Z,68.41
2022-10-12T13:13:28.326Z,68.41
2022-10-12T13:14:28.336Z,67.98
2022-10-12T13:15:28.305Z,68.49
2022-10-12T13:17:23.326Z,68.59
2022-10-12T13:17:33.498Z,68.68
2022-10-12T13:18:46.559Z,68.49
2022-10-12T13:19:29.291Z,68.68
2022-10-12T13:20:28.241Z,68.68
2022-10-12T13:21:28.246Z,67.91
2022-10-12T13:22:28.256Z,67.91
2022-10-12T13:23:28.214Z,67.78
2022-10-12T13:24:28.235Z,67.88
2022-10-12T13:25:28.387Z,68.08
2022-10-12T13:26:28.179Z,68.08
2022-10-12T13:27:28.168Z,68.38
2022-10-12T13:28:28.229Z,68.18
2022-10-12T13:29:28.177Z,68.08
2022-10-12T13:30:28.138Z,68.35
2022-10-12T13:31:28.205Z,68.45
2022-10-12T13:32:28.121Z,68.29
2022-10-12T13:33:32.081Z,68.15
2022-10-12T13:34:28.093Z,68.29
2022-10-12T13:35:28.099Z,68.25
2022-10-12T13:36:28.092Z,68.45
2022-10-12T13:37:28.099Z,68.25
2022-10-12T13:38:28.043Z,68.45
2022-10-12T13:39:28.029Z,68.05
2022-10-12T13:40:28.025Z,68.05
2022-10-12T13:41:28.013Z,68.35
2022-10-12T13:42:28.028Z,68.25
2022-10-12T13:43:28.053Z,68.25
2022-10-12T13:44:27.975Z,67.85
2022-10-12T13:45:27.976Z,67.48
2022-10-12T13:46:27.949Z,67.78
2022-10-12T13:47:28.050Z,67.88
2022-10-12T13:48:54.020Z,67.45
2022-10-12T13:49:28.978Z,67.78